createdAt,value
2023-03-31T00:00:34.176Z,85.90
2023-03-31T00:01:34.146Z,85.66
2023-03-31T00:02:34.220Z,85.53
2023-03-31T00:03:34.559Z,85.01
2023-03-31T00:04:34.193Z,84.57
2023-03-31T00:05:34.146Z,84.40
2023-03-31T00:06:34.086Z,84.62
2023-03-31T00:07:34.082Z,84.61
2023-03-31T00:08:34.065Z,85.05
2023-03-31T00:09:34.054Z,85.09
2023-03-31T00:10:34.055Z,85.20
2023-03-31T00:11:34.084Z,85.31
2023-03-31T00:12:34.012Z,85.67
2023-03-31T00:13:34.005Z,85.56
2023-03-31T00:14:34.017Z,85.51
2023-03-31T00:15:33.970Z,85.32
2023-03-31T00:16:33.993Z,85.77
2023-03-31T00:17:34.003Z,85.94
2023-03-31T00:18:33.921Z,86.29
2023-03-31T00:19:33.916Z,86.51
2023-03-31T00:20:33.904Z,86.43
2023-03-31T00:21:34.109Z,86.73
2023-03-31T00:22:33.879Z,86.83
2023-03-31T00:23:33.904Z,86.82
2023-03-31T00:24:33.893Z,86.69
2023-03-31T00:25:33.844Z,86.74
2023-03-31T00:26:33.828Z,86.81
2023-03-31T00:27:33.806Z,87.04
2023-03-31T00:28:33.819Z,87.01
2023-03-31T00:29:33.884Z,86.96
2023-03-31T00:30:33.783Z,87.17
2023-03-31T00:31:33.783Z,87.49
2023-03-31T00:32:33.823Z,87.68
2023-03-31T00:33:33.740Z,87.77
2023-03-31T00:34:33.729Z,87.55
2023-03-31T00:35:33.761Z,87.47
2023-03-31T00:36:33.703Z,87.37
2023-03-31T00:37:33.677Z,87.39
2023-03-31T00:38:33.675Z,87.45
2023-03-31T00:39:33.667Z,87.43
2023-03-31T00:40:33.665Z,87.30
2023-03-31T00:41:33.675Z,87.51
2023-03-31T00:42:33.614Z,87.43
2023-03-31T00:43:33.623Z,87.50
2023-03-31T00:44:33.588Z,87.44
2023-03-31T00:45:33.612Z,87.18
2023-03-31T00:46:33.560Z,86.71
2023-03-31T00:47:33.601Z,86.10
2023-03-31T00:48:33.535Z,85.50
2023-03-31T00:49:33.554Z,85.14
2023-03-31T00:50:33.517Z,84.48
2023-03-31T00:51:33.506Z,84.24
2023-03-31T00:52:33.479Z,83.69
2023-03-31T00:53:33.495Z,83.63
2023-03-31T00:54:33.476Z,83.30
2023-03-31T00:55:33.451Z,82.62
2023-03-31T00:56:33.450Z,82.04
2023-03-31T00:57:33.424Z,81.77
2023-03-31T00:58:33.403Z,81.57
2023-03-31T00:59:33.497Z,81.84
2023-03-31T01:00:33.382Z,81.71
2023-03-31T01:01:33.399Z,81.62
2023-03-31T01:02:33.369Z,81.44
2023-03-31T01:03:39.733Z,81.32
2023-03-31T01:04:33.336Z,81.20
2023-03-31T01:05:33.356Z,81.25
2023-03-31T01:06:33.312Z,81.23
2023-03-31T01:07:33.308Z,81.53
2023-03-31T01:08:33.283Z,81.84
2023-03-31T01:09:33.270Z,81.91
2023-03-31T01:10:33.245Z,82.13
2023-03-31T01:11:33.292Z,82.31
2023-03-31T01:12:33.235Z,82.60
2023-03-31T01:13:33.222Z,82.64
2023-03-31T01:14:33.210Z,82.74
2023-03-31T01:15:33.188Z,83.26
2023-03-31T01:16:33.192Z,83.07
2023-03-31T01:17:33.330Z,83.07
2023-03-31T01:18:33.158Z,83.22
2023-03-31T01:19:33.140Z,83.07
2023-03-31T01:20:33.116Z,83.28
2023-03-31T01:21:33.125Z,83.01
2023-03-31T01:22:33.103Z,83.15
2023-03-31T01:23:33.113Z,83.31
2023-03-31T01:24:33.086Z,83.43
2023-03-31T01:25:33.067Z,83.39
2023-03-31T01:26:33.032Z,83.70
2023-03-31T01:27:33.028Z,83.67
2023-03-31T01:28:33.020Z,83.58
2023-03-31T01:29:33.047Z,83.99
2023-03-31T01:30:32.997Z,84.98
2023-03-31T01:31:33.102Z,86.46
2023-03-31T01:32:33.014Z,87.63
2023-03-31T01:33:32.994Z,88.38
2023-03-31T01:34:32.948Z,89.05
2023-03-31T01:35:33.014Z,89.34
2023-03-31T01:36:32.980Z,90.08
2023-03-31T01:37:32.911Z,90.30
2023-03-31T01:38:32.887Z,90.82
2023-03-31T01:39:32.891Z,91.62
2023-03-31T01:40:32.879Z,91.90
2023-03-31T01:41:32.902Z,91.63
2023-03-31T01:42:32.852Z,91.81
2023-03-31T01:43:32.825Z,91.61
2023-03-31T01:44:32.806Z,91.60
2023-03-31T01:45:32.801Z,91.82
2023-03-31T01:46:32.810Z,91.91
2023-03-31T01:47:32.867Z,92.17
2023-03-31T01:48:32.758Z,92.91
2023-03-31T01:49:32.747Z,92.78
2023-03-31T01:50:32.748Z,93.10
2023-03-31T01:51:32.735Z,93.19
2023-03-31T01:52:32.727Z,93.40
2023-03-31T01:53:32.749Z,93.71
2023-03-31T01:54:32.697Z,93.88
2023-03-31T01:55:32.680Z,93.78
2023-03-31T01:56:32.657Z,93.68
2023-03-31T01:57:32.706Z,93.91
2023-03-31T01:58:32.641Z,93.94
2023-03-31T01:59:32.646Z,94.06
2023-03-31T02:00:32.604Z,94.09
2023-03-31T02:01:33.160Z,94.22
2023-03-31T02:02:32.753Z,94.56
2023-03-31T02:03:32.605Z,94.66
2023-03-31T02:04:32.567Z,94.35
2023-03-31T02:05:32.576Z,94.24
2023-03-31T02:06:32.531Z,93.90
2023-03-31T02:07:32.543Z,94.00
2023-03-31T02:08:32.516Z,94.43
2023-03-31T02:09:32.513Z,94.64
2023-03-31T02:10:32.501Z,94.64
2023-03-31T02:11:32.492Z,94.76
2023-03-31T02:12:32.465Z,94.81
2023-03-31T02:13:32.452Z,94.87
2023-03-31T02:14:32.439Z,95.00
2023-03-31T02:15:32.436Z,95.16
2023-03-31T02:16:32.476Z,95.31
2023-03-31T02:17:32.452Z,95.24
2023-03-31T02:18:32.370Z,95.27
2023-03-31T02:19:32.361Z,95.35
2023-03-31T02:20:32.348Z,95.50
2023-03-31T02:21:32.355Z,95.65
2023-03-31T02:22:32.327Z,95.83
2023-03-31T02:23:32.427Z,95.91
2023-03-31T02:24:32.319Z,96.06
2023-03-31T02:25:32.295Z,96.07
2023-03-31T02:26:32.298Z,96.15
2023-03-31T02:27:32.262Z,96.06
2023-03-31T02:28:32.269Z,95.88
2023-03-31T02:29:32.265Z,95.77
2023-03-31T02:30:32.300Z,95.85
2023-03-31T02:31:32.263Z,95.85
2023-03-31T02:32:32.273Z,95.74
2023-03-31T02:33:32.212Z,95.56
2023-03-31T02:34:32.196Z,95.36
2023-03-31T02:35:32.238Z,95.31
2023-03-31T02:36:32.143Z,95.32
2023-03-31T02:37:32.148Z,95.37
2023-03-31T02:38:32.121Z,95.44
2023-03-31T02:39:32.130Z,95.53
2023-03-31T02:40:32.119Z,95.51
2023-03-31T02:41:32.111Z,95.55
2023-03-31T02:42:32.083Z,95.59
2023-03-31T02:43:32.060Z,95.65
2023-03-31T02:44:32.057Z,95.73
2023-03-31T02:45:32.123Z,95.85
2023-03-31T02:46:32.229Z,95.97
2023-03-31T02:47:32.065Z,96.10
2023-03-31T02:48:32.002Z,96.24
2023-03-31T02:49:31.995Z,96.24
2023-03-31T02:50:33.290Z,95.99
2023-03-31T02:51:31.988Z,95.79
2023-03-31T02:52:31.978Z,95.72
2023-03-31T02:53:31.978Z,95.74
2023-03-31T02:54:31.916Z,95.81
2023-03-31T02:55:31.901Z,95.98
2023-03-31T02:56:31.899Z,96.19
2023-03-31T02:57:31.908Z,96.40
2023-03-31T02:58:31.860Z,96.56
2023-03-31T02:59:31.891Z,96.60
2023-03-31T03:00:31.846Z,96.63
2023-03-31T03:01:31.866Z,96.66
2023-03-31T03:02:31.889Z,96.68
2023-03-31T03:03:31.890Z,96.69
2023-03-31T03:04:31.806Z,96.72
2023-03-31T03:05:31.844Z,96.67
2023-03-31T03:06:31.768Z,96.47
2023-03-31T03:07:31.776Z,96.28
2023-03-31T03:08:31.739Z,96.15
2023-03-31T03:09:31.752Z,95.99
2023-03-31T03:10:31.738Z,95.81
2023-03-31T03:11:31.739Z,95.53
2023-03-31T03:12:31.716Z,95.28
2023-03-31T03:13:31.688Z,95.39
2023-03-31T03:14:31.675Z,95.62
2023-03-31T03:15:31.688Z,95.72
2023-03-31T03:16:31.676Z,95.89
2023-03-31T03:17:31.683Z,95.83
2023-03-31T03:18:31.620Z,95.82
2023-03-31T03:19:31.606Z,95.80
2023-03-31T03:20:31.601Z,95.76
2023-03-31T03:21:31.599Z,95.84
2023-03-31T03:22:31.579Z,95.92
2023-03-31T03:23:31.580Z,96.04
2023-03-31T03:24:31.542Z,96.14
2023-03-31T03:25:31.533Z,96.26
2023-03-31T03:26:31.513Z,96.32
2023-03-31T03:27:31.516Z,96.46
2023-03-31T03:28:31.496Z,96.58
2023-03-31T03:29:31.542Z,96.66
2023-03-31T03:30:31.528Z,96.73
2023-03-31T03:31:31.451Z,96.74
2023-03-31T03:32:31.445Z,96.82
2023-03-31T03:33:31.438Z,96.81
2023-03-31T03:34:31.414Z,96.78
2023-03-31T03:35:31.427Z,96.73
2023-03-31T03:36:31.406Z,96.62
2023-03-31T03:37:31.381Z,96.49
2023-03-31T03:38:31.378Z,96.33
2023-03-31T03:39:31.407Z,96.31
2023-03-31T03:40:31.356Z,96.34
2023-03-31T03:41:31.395Z,96.37
2023-03-31T03:42:31.319Z,96.37
2023-03-31T03:43:31.305Z,96.36
2023-03-31T03:44:31.313Z,96.38
2023-03-31T03:45:31.297Z,96.44
2023-03-31T03:46:31.324Z,96.48
2023-03-31T03:47:31.310Z,96.49
2023-03-31T03:48:31.251Z,96.51
2023-03-31T03:49:31.237Z,96.48
2023-03-31T03:50:31.217Z,96.48
2023-03-31T03:51:31.207Z,96.54
2023-03-31T03:52:31.193Z,96.59
2023-03-31T03:53:31.195Z,96.67
2023-03-31T03:54:31.163Z,96.74
2023-03-31T03:55:31.149Z,96.75
2023-03-31T03:56:31.152Z,96.82
2023-03-31T03:57:31.222Z,96.84
2023-03-31T03:58:31.146Z,96.81
2023-03-31T03:59:31.109Z,96.70
2023-03-31T04:00:31.070Z,96.67
2023-03-31T04:01:31.102Z,96.58
2023-03-31T04:02:31.113Z,96.43
2023-03-31T04:03:31.037Z,96.37
2023-03-31T04:04:31.185Z,96.38
2023-03-31T04:05:31.147Z,96.36
2023-03-31T04:06:30.992Z,96.29
2023-03-31T04:07:30.986Z,96.22
2023-03-31T04:08:30.981Z,96.11
2023-03-31T04:09:30.976Z,95.97
2023-03-31T04:10:30.956Z,95.91
2023-03-31T04:11:30.970Z,95.87
2023-03-31T04:12:30.943Z,95.76
2023-03-31T04:13:30.912Z,95.67
2023-03-31T04:14:30.917Z,95.68
2023-03-31T04:15:30.886Z,95.68
2023-03-31T04:16:30.944Z,95.79
2023-03-31T04:17:30.985Z,95.81
2023-03-31T04:18:30.840Z,95.86
2023-03-31T04:19:30.862Z,95.84
2023-03-31T04:20:30.887Z,95.74
2023-03-31T04:21:30.805Z,95.66
2023-03-31T04:22:30.806Z,95.65
2023-03-31T04:23:30.819Z,95.63
2023-03-31T04:24:30.900Z,95.67
2023-03-31T04:25:30.902Z,95.76
2023-03-31T04:26:30.741Z,95.84
2023-03-31T04:27:30.733Z,95.91
2023-03-31T04:28:30.707Z,95.98
2023-03-31T04:29:30.728Z,96.04
2023-03-31T04:30:30.980Z,96.04
2023-03-31T04:31:31.030Z,96.04
2023-03-31T04:32:30.734Z,96.06
2023-03-31T04:33:30.648Z,95.89
2023-03-31T04:34:30.635Z,95.70
2023-03-31T04:35:30.666Z,95.48
2023-03-31T04:36:30.603Z,95.34
2023-03-31T04:37:30.616Z,95.29
2023-03-31T04:38:30.583Z,95.31
2023-03-31T04:39:30.600Z,95.28
2023-03-31T04:40:30.588Z,95.29
2023-03-31T04:41:30.585Z,95.30
2023-03-31T04:42:30.524Z,95.08
2023-03-31T04:43:30.549Z,94.99
2023-03-31T04:44:30.520Z,94.94
2023-03-31T04:45:30.558Z,94.87
2023-03-31T04:46:30.535Z,94.74
2023-03-31T04:47:30.544Z,94.76
2023-03-31T04:48:30.486Z,94.64
2023-03-31T04:49:30.448Z,94.67
2023-03-31T04:50:30.429Z,94.79
2023-03-31T04:51:30.413Z,94.85
2023-03-31T04:52:30.728Z,94.87
2023-03-31T04:53:30.427Z,94.92
2023-03-31T04:54:30.395Z,94.90
2023-03-31T04:55:30.364Z,94.83
2023-03-31T04:56:30.412Z,94.90
2023-03-31T04:57:30.447Z,94.87
2023-03-31T04:58:30.357Z,94.76
2023-03-31T04:59:30.380Z,94.66
2023-03-31T05:00:30.305Z,94.62
2023-03-31T05:01:30.340Z,94.50
2023-03-31T05:02:30.335Z,94.47
2023-03-31T05:03:30.558Z,94.37
2023-03-31T05:04:30.256Z,94.09
2023-03-31T05:05:30.264Z,93.89
2023-03-31T05:06:30.233Z,93.80
2023-03-31T05:07:30.221Z,93.68
2023-03-31T05:08:30.208Z,93.59
2023-03-31T05:09:30.212Z,93.49
2023-03-31T05:10:30.191Z,93.27
2023-03-31T05:11:30.205Z,92.95
2023-03-31T05:12:30.162Z,92.71
2023-03-31T05:13:30.129Z,92.57
2023-03-31T05:14:30.133Z,92.46
2023-03-31T05:15:30.126Z,92.54
2023-03-31T05:16:30.183Z,92.70
2023-03-31T05:17:30.167Z,92.80
2023-03-31T05:18:30.096Z,92.85
2023-03-31T05:19:30.082Z,92.98
2023-03-31T05:20:30.123Z,93.07
2023-03-31T05:21:30.041Z,93.13
2023-03-31T05:22:30.029Z,93.23
2023-03-31T05:23:30.181Z,93.30
2023-03-31T05:24:30.054Z,93.44
2023-03-31T05:25:30.012Z,93.50
2023-03-31T05:26:29.982Z,93.59
2023-03-31T05:27:29.983Z,93.68
2023-03-31T05:28:31.266Z,93.70
2023-03-31T05:29:29.985Z,93.54
2023-03-31T05:30:29.983Z,93.23
2023-03-31T05:31:29.934Z,92.91
2023-03-31T05:32:29.968Z,92.69
2023-03-31T05:33:29.885Z,92.67
2023-03-31T05:34:29.901Z,92.71
2023-03-31T05:35:29.915Z,92.66
2023-03-31T05:36:29.918Z,92.98
2023-03-31T05:37:29.862Z,93.19
2023-03-31T05:38:29.827Z,92.09
2023-03-31T05:39:29.854Z,91.85
2023-03-31T05:40:29.803Z,91.61
2023-03-31T05:41:29.826Z,91.44
2023-03-31T05:42:29.785Z,91.80
2023-03-31T05:43:29.765Z,92.19
2023-03-31T05:44:29.749Z,92.69
2023-03-31T05:45:29.743Z,93.01
2023-03-31T05:46:29.808Z,92.85
2023-03-31T05:47:29.833Z,91.98
2023-03-31T05:48:29.709Z,91.94
2023-03-31T05:49:29.680Z,92.25
2023-03-31T05:50:29.701Z,92.39
2023-03-31T05:51:29.668Z,92.38
2023-03-31T05:52:29.684Z,92.85
2023-03-31T05:53:29.673Z,92.76
2023-03-31T05:54:29.644Z,92.87
2023-03-31T05:55:30.751Z,93.04
2023-03-31T05:56:29.639Z,92.92
2023-03-31T05:57:29.629Z,92.90
2023-03-31T05:58:29.571Z,92.83
2023-03-31T05:59:29.593Z,92.97
2023-03-31T06:00:29.631Z,93.27
2023-03-31T06:01:29.698Z,93.02
2023-03-31T06:02:29.571Z,93.10
2023-03-31T06:03:29.619Z,93.25
2023-03-31T06:04:29.564Z,93.17
2023-03-31T06:05:29.525Z,93.38
2023-03-31T06:06:29.463Z,93.35
2023-03-31T06:07:29.501Z,93.31
2023-03-31T06:08:29.484Z,93.47
2023-03-31T06:09:29.506Z,93.94
2023-03-31T06:10:29.420Z,93.88
2023-03-31T06:11:29.441Z,93.96
2023-03-31T06:12:29.409Z,94.35
2023-03-31T06:13:29.373Z,94.60
2023-03-31T06:14:29.377Z,94.63
2023-03-31T06:15:29.351Z,93.91
2023-03-31T06:16:29.377Z,93.73
2023-03-31T06:17:29.372Z,94.08
2023-03-31T06:18:29.347Z,94.44
2023-03-31T06:19:29.315Z,94.32
2023-03-31T06:20:30.230Z,93.89
2023-03-31T06:21:29.264Z,94.04
2023-03-31T06:22:29.281Z,94.43
2023-03-31T06:23:29.336Z,94.63
2023-03-31T06:24:30.210Z,94.83
2023-03-31T06:25:32.513Z,94.88
2023-03-31T06:26:29.235Z,94.96
2023-03-31T06:27:29.219Z,94.96
2023-03-31T06:28:29.181Z,94.34
2023-03-31T06:29:29.222Z,93.99
2023-03-31T06:30:29.206Z,94.39
2023-03-31T06:31:29.178Z,94.77
2023-03-31T06:32:29.197Z,95.04
2023-03-31T06:33:29.114Z,95.07
2023-03-31T06:34:29.149Z,94.89
2023-03-31T06:35:29.132Z,94.66
2023-03-31T06:36:29.073Z,94.86
2023-03-31T06:37:29.106Z,94.92
2023-03-31T06:38:29.152Z,95.33
2023-03-31T06:39:29.059Z,95.25
2023-03-31T06:40:29.087Z,95.31
2023-03-31T06:41:29.074Z,94.99
2023-03-31T06:42:29.032Z,94.55
2023-03-31T06:43:29.015Z,94.44
2023-03-31T06:44:29.022Z,94.02
2023-03-31T06:45:28.967Z,94.03
2023-03-31T06:46:28.968Z,93.09
2023-03-31T06:47:28.972Z,93.14
2023-03-31T06:48:28.970Z,92.84
2023-03-31T06:49:29.124Z,92.21
2023-03-31T06:50:28.893Z,92.21
2023-03-31T06:51:30.131Z,92.19
2023-03-31T06:52:28.879Z,92.46
2023-03-31T06:53:28.921Z,91.26
2023-03-31T06:54:28.889Z,90.59
2023-03-31T06:55:28.840Z,90.40
2023-03-31T06:56:28.808Z,91.17
2023-03-31T06:57:28.884Z,90.62
2023-03-31T06:58:31.430Z,91.09
2023-03-31T06:59:28.816Z,91.68
2023-03-31T07:00:28.774Z,91.59
2023-03-31T07:01:28.773Z,91.83
2023-03-31T07:02:28.869Z,91.04
2023-03-31T07:03:28.823Z,90.85
2023-03-31T07:04:28.724Z,90.52
2023-03-31T07:05:28.746Z,90.75
2023-03-31T07:06:28.714Z,91.60
2023-03-31T07:07:28.666Z,92.49
2023-03-31T07:08:28.664Z,92.86
2023-03-31T07:09:28.663Z,92.71
2023-03-31T07:10:28.674Z,91.34
2023-03-31T07:11:28.729Z,90.15
2023-03-31T07:12:28.657Z,90.84
2023-03-31T07:13:28.643Z,90.88
2023-03-31T07:14:28.604Z,90.52
2023-03-31T07:15:28.593Z,87.32
2023-03-31T07:16:28.613Z,85.19
2023-03-31T07:17:28.626Z,84.84
2023-03-31T07:18:28.522Z,85.34
2023-03-31T07:19:28.519Z,86.07
2023-03-31T07:20:28.496Z,85.79
2023-03-31T07:21:28.499Z,86.05
2023-03-31T07:22:28.474Z,85.53
2023-03-31T07:23:28.488Z,86.40
2023-03-31T07:24:28.481Z,85.83
2023-03-31T07:25:28.437Z,85.91
2023-03-31T07:26:28.447Z,85.55
2023-03-31T07:27:28.415Z,85.12
2023-03-31T07:28:28.390Z,85.55
2023-03-31T07:29:28.408Z,85.85
2023-03-31T07:30:29.178Z,86.41
2023-03-31T07:31:28.397Z,85.95
2023-03-31T07:32:29.201Z,85.93
2023-03-31T07:33:28.382Z,86.01
2023-03-31T07:34:28.331Z,85.31
2023-03-31T07:35:28.354Z,85.91
2023-03-31T07:36:28.321Z,86.91
2023-03-31T07:37:28.281Z,87.15
2023-03-31T07:38:28.320Z,87.85
2023-03-31T07:39:28.263Z,88.64
2023-03-31T07:40:28.271Z,89.09
2023-03-31T07:41:28.305Z,89.47
2023-03-31T07:42:28.236Z,89.63
2023-03-31T07:43:28.218Z,89.85
2023-03-31T07:44:28.202Z,90.04
2023-03-31T07:45:28.199Z,90.40
2023-03-31T07:46:28.286Z,90.22
2023-03-31T07:47:28.198Z,90.40
2023-03-31T07:48:28.141Z,90.41
2023-03-31T07:49:28.156Z,90.03
2023-03-31T07:50:28.150Z,90.42
2023-03-31T07:51:28.101Z,90.37
2023-03-31T07:52:28.125Z,90.30
2023-03-31T07:53:28.181Z,90.15
2023-03-31T07:54:28.084Z,90.30
2023-03-31T07:55:28.054Z,90.80
2023-03-31T07:56:28.043Z,90.91
2023-03-31T07:57:28.054Z,91.26
2023-03-31T07:58:28.100Z,91.27
2023-03-31T07:59:28.071Z,91.01
2023-03-31T08:00:28.004Z,90.40
2023-03-31T08:01:27.978Z,88.92
2023-03-31T08:02:28.095Z,88.26
2023-03-31T08:03:28.608Z,87.42
2023-03-31T08:04:27.994Z,85.84
2023-03-31T08:05:27.947Z,84.02
2023-03-31T08:06:27.918Z,81.40
2023-03-31T08:07:27.917Z,78.87
2023-03-31T08:08:28.592Z,77.31
2023-03-31T08:09:27.862Z,75.90
2023-03-31T08:10:27.895Z,73.88
2023-03-31T08:11:27.898Z,72.38
2023-03-31T08:12:27.948Z,71.52
2023-03-31T08:13:27.822Z,70.29
2023-03-31T08:14:40.034Z,68.21
2023-03-31T08:15:27.799Z,68.02
2023-03-31T08:16:27.837Z,66.18
2023-03-31T08:17:27.792Z,66.88
2023-03-31T08:18:27.765Z,68.25
2023-03-31T08:19:27.760Z,70.45
2023-03-31T08:20:27.742Z,70.56
2023-03-31T08:21:27.754Z,70.32
2023-03-31T08:22:27.708Z,71.88
2023-03-31T08:23:27.715Z,69.52
2023-03-31T08:24:27.728Z,67.11
2023-03-31T08:25:27.654Z,64.76
2023-03-31T08:26:27.657Z,65.16
2023-03-31T08:27:27.643Z,65.58
2023-03-31T08:28:27.625Z,64.59
2023-03-31T08:29:27.669Z,62.85
2023-03-31T08:30:27.605Z,62.55
2023-03-31T08:31:27.738Z,61.47
2023-03-31T08:32:27.607Z,63.83
2023-03-31T08:33:27.594Z,65.69
2023-03-31T08:34:27.574Z,65.89
2023-03-31T08:35:27.569Z,66.05
2023-03-31T08:36:27.654Z,65.21
2023-03-31T08:37:27.517Z,64.50
2023-03-31T08:38:27.534Z,64.79
2023-03-31T08:39:27.556Z,64.81
2023-03-31T08:40:27.535Z,62.53
2023-03-31T08:41:27.492Z,60.64
2023-03-31T08:42:27.464Z,60.99
2023-03-31T08:43:27.471Z,60.41
2023-03-31T08:44:27.489Z,60.33
2023-03-31T08:45:27.481Z,60.25
2023-03-31T08:46:27.502Z,60.39
2023-03-31T08:47:27.465Z,59.93
2023-03-31T08:48:27.407Z,58.56
2023-03-31T08:49:27.373Z,60.45
2023-03-31T08:50:27.416Z,60.26
2023-03-31T08:51:27.360Z,60.34
2023-03-31T08:52:27.343Z,59.67
2023-03-31T08:53:27.346Z,57.47
2023-03-31T08:54:27.366Z,56.67
2023-03-31T08:55:27.342Z,58.95
2023-03-31T08:56:27.294Z,59.51
2023-03-31T08:57:27.396Z,61.10
2023-03-31T08:58:27.271Z,63.59
2023-03-31T08:59:27.315Z,62.17
2023-03-31T09:00:27.234Z,63.59
2023-03-31T09:01:27.269Z,64.19
2023-03-31T09:02:27.419Z,66.44
2023-03-31T09:03:27.275Z,67.77
2023-03-31T09:04:27.230Z,68.99
2023-03-31T09:05:27.208Z,69.88
2023-03-31T09:06:27.168Z,69.95
2023-03-31T09:07:27.189Z,67.52
2023-03-31T09:08:27.167Z,67.30
2023-03-31T09:09:27.196Z,66.82
2023-03-31T09:10:27.105Z,64.25
2023-03-31T09:11:27.174Z,64.80
2023-03-31T09:12:27.093Z,63.05
2023-03-31T09:13:27.146Z,65.23
2023-03-31T09:14:27.130Z,63.30
2023-03-31T09:15:27.101Z,62.30
2023-03-31T09:16:27.087Z,61.33
2023-03-31T09:17:27.108Z,59.96
2023-03-31T09:18:27.173Z,58.51
2023-03-31T09:19:27.017Z,57.90
2023-03-31T09:20:27.004Z,59.37
2023-03-31T09:21:26.983Z,59.13
2023-03-31T09:22:26.985Z,59.71
2023-03-31T09:23:26.987Z,60.57
2023-03-31T09:24:26.981Z,62.88
2023-03-31T09:25:26.983Z,64.68
2023-03-31T09:26:26.932Z,64.94
2023-03-31T09:27:26.957Z,65.67
2023-03-31T09:28:26.930Z,66.51
2023-03-31T09:29:26.966Z,65.29
2023-03-31T09:30:26.859Z,66.86
2023-03-31T09:31:26.918Z,66.60
2023-03-31T09:32:26.862Z,66.51
2023-03-31T09:33:26.846Z,63.32
2023-03-31T09:34:26.852Z,61.93
2023-03-31T09:35:26.976Z,60.29
2023-03-31T09:36:26.821Z,60.45
2023-03-31T09:37:26.791Z,60.05
2023-03-31T09:38:26.787Z,62.61
2023-03-31T09:39:26.771Z,64.06
2023-03-31T09:40:26.747Z,65.72
2023-03-31T09:41:26.764Z,66.83
2023-03-31T09:42:26.720Z,67.78
2023-03-31T09:43:26.708Z,68.09
2023-03-31T09:44:26.708Z,68.09
2023-03-31T09:45:26.738Z,69.40
2023-03-31T09:46:26.764Z,69.68
2023-03-31T09:47:26.744Z,70.86
2023-03-31T09:48:26.650Z,71.78
2023-03-31T09:49:26.722Z,73.77
2023-03-31T09:50:26.670Z,75.94
2023-03-31T09:51:26.649Z,76.64
2023-03-31T09:52:26.595Z,77.21
2023-03-31T09:53:26.635Z,78.42
2023-03-31T09:54:26.560Z,78.28
2023-03-31T09:55:39.005Z,79.67
2023-03-31T09:56:26.535Z,81.09
2023-03-31T09:57:26.720Z,81.62
2023-03-31T09:58:26.538Z,82.44
2023-03-31T09:59:26.546Z,82.81
2023-03-31T10:00:26.494Z,83.91
2023-03-31T10:01:26.489Z,84.21
2023-03-31T10:02:26.655Z,84.85
2023-03-31T10:03:26.450Z,84.59
2023-03-31T10:04:26.567Z,85.46
2023-03-31T10:05:26.435Z,84.58
2023-03-31T10:06:26.409Z,84.22
2023-03-31T10:07:26.394Z,83.85
2023-03-31T10:08:26.395Z,84.64
2023-03-31T10:09:27.019Z,84.89
2023-03-31T10:10:26.435Z,84.58
2023-03-31T10:11:26.360Z,84.80
2023-03-31T10:12:26.328Z,85.73
2023-03-31T10:13:26.325Z,85.47
2023-03-31T10:14:26.317Z,85.07
2023-03-31T10:15:26.341Z,85.58
2023-03-31T10:16:26.389Z,85.85
2023-03-31T10:17:26.445Z,86.03
2023-03-31T10:18:26.329Z,85.71
2023-03-31T10:19:26.266Z,84.55
2023-03-31T10:20:26.232Z,86.30
2023-03-31T10:21:26.276Z,87.31
2023-03-31T10:22:26.208Z,87.07
2023-03-31T10:23:26.243Z,87.37
2023-03-31T10:24:26.181Z,87.42
2023-03-31T10:25:26.169Z,86.62
2023-03-31T10:26:26.186Z,85.70
2023-03-31T10:27:26.153Z,87.17
2023-03-31T10:28:26.116Z,87.45
2023-03-31T10:29:26.185Z,86.23
2023-03-31T10:30:26.100Z,87.14
2023-03-31T10:31:26.159Z,87.44
2023-03-31T10:32:26.114Z,88.14
2023-03-31T10:33:26.108Z,87.85
2023-03-31T10:34:26.091Z,88.73
2023-03-31T10:35:26.128Z,88.44
2023-03-31T10:36:26.045Z,87.69
2023-03-31T10:37:26.023Z,88.32
2023-03-31T10:38:25.994Z,88.10
2023-03-31T10:39:25.988Z,88.61
2023-03-31T10:40:25.973Z,84.77
2023-03-31T10:41:26.018Z,79.32
2023-03-31T10:42:25.947Z,78.03
2023-03-31T10:43:25.925Z,76.79
2023-03-31T10:44:25.901Z,76.67
2023-03-31T10:45:36.430Z,74.54
2023-03-31T10:46:25.953Z,73.54
2023-03-31T10:47:25.918Z,73.15
2023-03-31T10:48:25.861Z,73.29
2023-03-31T10:49:25.833Z,69.58
2023-03-31T10:50:25.825Z,70.51
2023-03-31T10:51:25.861Z,69.63
2023-03-31T10:52:25.828Z,70.00
2023-03-31T10:53:25.857Z,69.24
2023-03-31T10:54:26.616Z,66.02
2023-03-31T10:55:25.844Z,67.44
2023-03-31T10:56:25.765Z,67.10
2023-03-31T10:57:25.786Z,66.38
2023-03-31T10:58:25.748Z,63.73
2023-03-31T10:59:25.791Z,64.67
2023-03-31T11:00:25.711Z,65.19
2023-03-31T11:01:25.733Z,66.43
2023-03-31T11:02:25.713Z,66.61
2023-03-31T11:03:25.825Z,69.70
2023-03-31T11:04:25.663Z,69.05
2023-03-31T11:05:25.697Z,68.93
2023-03-31T11:06:25.660Z,71.40
2023-03-31T11:07:25.690Z,72.02
2023-03-31T11:08:25.677Z,73.12
2023-03-31T11:09:25.643Z,73.11
2023-03-31T11:10:25.595Z,74.07
2023-03-31T11:11:25.673Z,74.24
2023-03-31T11:12:25.579Z,75.09
2023-03-31T11:13:25.599Z,75.61
2023-03-31T11:14:25.567Z,74.76
2023-03-31T11:15:25.527Z,76.05
2023-03-31T11:16:25.615Z,76.43
2023-03-31T11:17:25.618Z,76.61
2023-03-31T11:18:25.500Z,76.17
2023-03-31T11:19:25.473Z,77.39
2023-03-31T11:20:25.476Z,77.94
2023-03-31T11:21:25.434Z,78.16
2023-03-31T11:22:25.442Z,78.51
2023-03-31T11:23:25.455Z,78.26
2023-03-31T11:24:25.411Z,79.72
2023-03-31T11:25:25.408Z,79.93
2023-03-31T11:26:25.372Z,80.37
2023-03-31T11:27:25.366Z,80.54
2023-03-31T11:28:25.357Z,79.82
2023-03-31T11:29:25.373Z,80.20
2023-03-31T11:30:25.329Z,81.48
2023-03-31T11:31:25.339Z,80.92
2023-03-31T11:32:25.326Z,81.04
2023-03-31T11:33:25.310Z,80.56
2023-03-31T11:34:25.273Z,80.12
2023-03-31T11:35:25.304Z,79.28
2023-03-31T11:36:25.264Z,80.21
2023-03-31T11:37:25.246Z,77.35
2023-03-31T11:38:25.243Z,77.82
2023-03-31T11:39:25.215Z,74.91
2023-03-31T11:40:25.188Z,75.92
2023-03-31T11:41:25.215Z,77.75
2023-03-31T11:42:25.176Z,78.16
2023-03-31T11:43:25.170Z,79.61
2023-03-31T11:44:25.172Z,79.72
2023-03-31T11:45:25.171Z,76.67
2023-03-31T11:46:25.159Z,78.15
2023-03-31T11:47:25.170Z,79.35
2023-03-31T11:48:25.119Z,78.59
2023-03-31T11:49:25.074Z,77.59
2023-03-31T11:50:25.075Z,77.32
2023-03-31T11:51:25.063Z,76.98
2023-03-31T11:52:25.063Z,76.66
2023-03-31T11:53:25.070Z,74.97
2023-03-31T11:54:25.098Z,75.86
2023-03-31T11:55:25.010Z,76.73
2023-03-31T11:56:25.006Z,76.43
2023-03-31T11:57:24.998Z,76.07
2023-03-31T11:58:24.968Z,74.16
2023-03-31T11:59:25.010Z,74.39
2023-03-31T12:00:24.947Z,74.63
2023-03-31T12:01:24.913Z,75.15
2023-03-31T12:02:25.045Z,75.34
2023-03-31T12:03:24.994Z,75.56
2023-03-31T12:04:24.930Z,75.01
2023-03-31T12:05:25.026Z,74.54
2023-03-31T12:06:24.944Z,72.52
2023-03-31T12:07:24.870Z,72.61
2023-03-31T12:08:24.866Z,71.58
2023-03-31T12:09:24.845Z,70.49
2023-03-31T12:10:24.821Z,67.83
2023-03-31T12:11:24.850Z,65.53
2023-03-31T12:12:24.792Z,62.98
2023-03-31T12:13:24.793Z,59.67
2023-03-31T12:14:24.751Z,57.94
2023-03-31T12:15:24.769Z,56.09
2023-03-31T12:16:24.820Z,54.74
2023-03-31T12:17:24.794Z,53.82
2023-03-31T12:18:24.694Z,53.61
2023-03-31T12:19:24.691Z,54.23
2023-03-31T12:20:24.675Z,55.52
2023-03-31T12:21:24.669Z,54.57
2023-03-31T12:22:24.650Z,58.90
2023-03-31T12:23:24.674Z,59.53
2023-03-31T12:24:24.681Z,59.76
2023-03-31T12:25:24.615Z,61.87
2023-03-31T12:26:24.603Z,63.34
2023-03-31T12:27:24.622Z,62.70
2023-03-31T12:28:24.610Z,61.99
2023-03-31T12:29:24.602Z,65.46
2023-03-31T12:30:24.577Z,64.10
2023-03-31T12:31:24.657Z,64.46
2023-03-31T12:32:24.591Z,62.84
2023-03-31T12:33:24.518Z,61.52
2023-03-31T12:34:24.511Z,63.43
2023-03-31T12:35:24.533Z,62.90
2023-03-31T12:36:24.535Z,61.86
2023-03-31T12:37:24.461Z,61.31
2023-03-31T12:38:24.458Z,62.10
2023-03-31T12:39:24.451Z,61.34
2023-03-31T12:40:24.452Z,61.84
2023-03-31T12:41:24.437Z,59.42
2023-03-31T12:42:25.176Z,59.13
2023-03-31T12:43:24.433Z,59.41
2023-03-31T12:44:24.384Z,59.74
2023-03-31T12:45:24.373Z,61.49
2023-03-31T12:46:24.402Z,61.41
2023-03-31T12:47:24.429Z,61.65
2023-03-31T12:48:24.333Z,61.23
2023-03-31T12:49:24.331Z,61.55
2023-03-31T12:50:24.311Z,64.12
2023-03-31T12:51:24.291Z,66.24
2023-03-31T12:52:24.284Z,68.80